sensor_id;sensor_type;location;lat;lon;timestamp;P1;durP1;ratioP1;P2;durP2;ratioP2
59950;SDS011;45812;53.540;9.774;2023-02-01T00:00:03;22.17;;;5.25;;
59950;SDS011;45812;53.540;9.774;2023-02-01T00:02:29;30.38;;;4.38;;
59950;SDS011;45812;53.540;9.774;2023-02-01T00:04:54;21.83;;;5.47;;
59950;SDS011;45812;53.540;9.774;2023-02-01T00:07:20;28.73;;;3.67;;
59950;SDS011;45812;53.540;9.774;2023-02-01T00:09:45;26.48;;;5.05;;
59950;SDS011;45812;53.540;9.774;2023-02-01T00:12:10;18.85;;;4.75;;
59950;SDS011;45812;53.540;9.774;2023-02-01T00:14:35;25.15;;;4.68;;
59950;SDS011;45812;53.540;9.774;2023-02-01T00:17:04;18.85;;;3.47;;
59950;SDS011;45812;53.540;9.774;2023-02-01T00:19:31;17.77;;;4.03;;
59950;SDS011;45812;53.540;9.774;2023-02-01T00:21:56;23.85;;;5.07;;
59950;SDS011;45812;53.540;9.774;2023-02-01T00:24:21;24.85;;;4.40;;
59950;SDS011;45812;53.540;9.774;2023-02-01T00:26:46;27.10;;;4.47;;
59950;SDS011;45812;53.540;9.774;2023-02-01T00:29:14;29.30;;;5.35;;
59950;SDS011;45812;53.540;9.774;2023-02-01T00:31:40;24.30;;;4.78;;
59950;SDS011;45812;53.540;9.774;2023-02-01T00:34:07;22.92;;;5.05;;
59950;SDS011;45812;53.540;9.774;2023-02-01T00:36:33;21.77;;;5.20;;
59950;SDS011;45812;53.540;9.774;2023-02-01T00:38:59;28.25;;;5.10;;
59950;SDS011;45812;53.540;9.774;2023-02-01T00:41:24;28.27;;;4.97;;
59950;SDS011;45812;53.540;9.774;2023-02-01T00:43:50;25.90;;;4.72;;
59950;SDS011;45812;53.540;9.774;2023-02-01T00:46:16;34.58;;;6.18;;
59950;SDS011;45812;53.540;9.774;2023-02-01T00:48:42;30.75;;;4.63;;
59950;SDS011;45812;53.540;9.774;2023-02-01T00:51:09;25.38;;;4.25;;
59950;SDS011;45812;53.540;9.774;2023-02-01T00:53:36;38.42;;;5.82;;
59950;SDS011;45812;53.540;9.774;2023-02-01T00:56:02;19.33;;;4.55;;
59950;SDS011;45812;53.540;9.774;2023-02-01T00:58:28;19.92;;;4.60;;
59950;SDS011;45812;53.540;9.774;2023-02-01T01:01:00;20.25;;;3.88;;
59950;SDS011;45812;53.540;9.774;2023-02-01T01:03:39;23.00;;;4.45;;
59950;SDS011;45812;53.540;9.774;2023-02-01T01:06:08;20.80;;;4.53;;
59950;SDS011;45812;53.540;9.774;2023-02-01T01:08:35;22.77;;;4.03;;
59950;SDS011;45812;53.540;9.774;2023-02-01T01:11:08;22.48;;;4.28;;
59950;SDS011;45812;53.540;9.774;2023-02-01T01:13:35;23.95;;;4.85;;
59950;SDS011;45812;53.540;9.774;2023-02-01T01:16:01;29.67;;;5.45;;
59950;SDS011;45812;53.540;9.774;2023-02-01T01:18:29;24.77;;;4.97;;
59950;SDS011;45812;53.540;9.774;2023-02-01T01:20:55;27.92;;;4.40;;
59950;SDS011;45812;53.540;9.774;2023-02-01T01:23:20;35.35;;;5.55;;
59950;SDS011;45812;53.540;9.774;2023-02-01T01:25:46;28.65;;;5.13;;
59950;SDS011;45812;53.540;9.774;2023-02-01T01:28:11;22.25;;;4.22;;
59950;SDS011;45812;53.540;9.774;2023-02-01T01:30:36;28.73;;;4.93;;
59950;SDS011;45812;53.540;9.774;2023-02-01T01:33:01;36.10;;;7.00;;
59950;SDS011;45812;53.540;9.774;2023-02-01T01:35:28;27.33;;;5.00;;
59950;SDS011;45812;53.540;9.774;2023-02-01T01:37:55;25.77;;;5.05;;
59950;SDS011;45812;53.540;9.774;2023-02-01T01:40:20;26.70;;;4.63;;
59950;SDS011;45812;53.540;9.774;2023-02-01T01:42:45;31.50;;;5.38;;
59950;SDS011;45812;53.540;9.774;2023-02-01T01:47:57;30.88;;;5.72;;
59950;SDS011;45812;53.540;9.774;2023-02-01T01:50:37;25.60;;;4.95;;
59950;SDS011;45812;53.540;9.774;2023-02-01T01:53:07;25.58;;;6.38;;
59950;SDS011;45812;53.540;9.774;2023-02-01T01:55:37;28.00;;;4.63;;
59950;SDS011;45812;53.540;9.774;2023-02-01T01:58:07;29.50;;;7.25;;
59950;SDS011;45812;53.540;9.774;2023-02-01T02:00:35;30.30;;;5.20;;
59950;SDS011;45812;53.540;9.774;2023-02-01T02:03:11;24.73;;;5.82;;
59950;SDS011;45812;53.540;9.774;2023-02-01T02:05:46;33.17;;;4.97;;
59950;SDS011;45812;53.540;9.774;2023-02-01T02:08:14;35.33;;;6.15;;
59950;SDS011;45812;53.540;9.774;2023-02-01T02:10:39;32.05;;;5.43;;
59950;SDS011;45812;53.540;9.774;2023-02-01T02:13:23;31.40;;;6.32;;
59950;SDS011;45812;53.540;9.774;2023-02-01T02:32:29;32.38;;;5.10;;
59950;SDS011;45812;53.540;9.774;2023-02-01T02:40:55;40.05;;;6.53;;
59950;SDS011;45812;53.540;9.774;2023-02-01T02:43:46;21.67;;;4.47;;
59950;SDS011;45812;53.540;9.774;2023-02-01T02:46:40;32.72;;;6.18;;
59950;SDS011;45812;53.540;9.774;2023-02-01T02:49:40;23.58;;;4.07;;
59950;SDS011;45812;53.540;9.774;2023-02-01T02:52:35;26.20;;;4.50;;
59950;SDS011;45812;53.540;9.774;2023-02-01T02:55:26;27.83;;;6.07;;
59950;SDS011;45812;53.540;9.774;2023-02-01T02:57:52;24.13;;;4.95;;
59950;SDS011;45812;53.540;9.774;2023-02-01T03:00:37;24.20;;;4.47;;
59950;SDS011;45812;53.540;9.774;2023-02-01T03:03:22;20.13;;;4.78;;
59950;SDS011;45812;53.540;9.774;2023-02-01T03:06:11;20.85;;;4.55;;
59950;SDS011;45812;53.540;9.774;2023-02-01T03:08:40;24.52;;;4.85;;
59950;SDS011;45812;53.540;9.774;2023-02-01T03:11:10;27.63;;;4.80;;
59950;SDS011;45812;53.540;9.774;2023-02-01T03:13:54;27.67;;;4.70;;
59950;SDS011;45812;53.540;9.774;2023-02-01T03:16:23;22.15;;;4.28;;
59950;SDS011;45812;53.540;9.774;2023-02-01T03:21:50;22.40;;;4.22;;
59950;SDS011;45812;53.540;9.774;2023-02-01T03:24:25;14.73;;;3.80;;
59950;SDS011;45812;53.540;9.774;2023-02-01T03:27:01;11.27;;;2.67;;
59950;SDS011;45812;53.540;9.774;2023-02-01T03:29:36;15.60;;;3.42;;
59950;SDS011;45812;53.540;9.774;2023-02-01T03:32:05;9.63;;;2.43;;
59950;SDS011;45812;53.540;9.774;2023-02-01T03:34:31;11.77;;;2.22;;
59950;SDS011;45812;53.540;9.774;2023-02-01T03:36:58;11.93;;;3.25;;
59950;SDS011;45812;53.540;9.774;2023-02-01T03:39:32;21.80;;;3.70;;
59950;SDS011;45812;53.540;9.774;2023-02-01T03:42:04;13.55;;;3.22;;
59950;SDS011;45812;53.540;9.774;2023-02-01T03:47:35;12.60;;;3.33;;
59950;SDS011;45812;53.540;9.774;2023-02-01T03:50:07;14.88;;;3.38;;
59950;SDS011;45812;53.540;9.774;2023-02-01T03:52:37;17.88;;;3.38;;
59950;SDS011;45812;53.540;9.774;2023-02-01T03:55:07;24.87;;;4.80;;
59950;SDS011;45812;53.540;9.774;2023-02-01T03:57:35;19.67;;;3.08;;
59950;SDS011;45812;53.540;9.774;2023-02-01T04:02:30;22.35;;;3.90;;
59950;SDS011;45812;53.540;9.774;2023-02-01T04:04:55;23.05;;;3.35;;
59950;SDS011;45812;53.540;9.774;2023-02-01T04:07:21;11.27;;;3.13;;
59950;SDS011;45812;53.540;9.774;2023-02-01T04:09:46;13.73;;;3.08;;
59950;SDS011;45812;53.540;9.774;2023-02-01T04:12:11;13.77;;;3.20;;
59950;SDS011;45812;53.540;9.774;2023-02-01T04:14:36;15.02;;;3.10;;
59950;SDS011;45812;53.540;9.774;2023-02-01T04:17:01;17.73;;;2.95;;
59950;SDS011;45812;53.540;9.774;2023-02-01T04:19:27;22.42;;;3.00;;
59950;SDS011;45812;53.540;9.774;2023-02-01T04:21:52;11.68;;;2.80;;
59950;SDS011;45812;53.540;9.774;2023-02-01T04:24:17;18.30;;;4.05;;
59950;SDS011;45812;53.540;9.774;2023-02-01T04:26:42;10.20;;;2.40;;
59950;SDS011;45812;53.540;9.774;2023-02-01T04:29:08;14.85;;;3.25;;
59950;SDS011;45812;53.540;9.774;2023-02-01T04:31:35;14.77;;;2.60;;
59950;SDS011;45812;53.540;9.774;2023-02-01T04:34:01;13.75;;;4.20;;
59950;SDS011;45812;53.540;9.774;2023-02-01T04:36:26;7.57;;;2.30;;
59950;SDS011;45812;53.540;9.774;2023-02-01T04:38:51;16.60;;;3.17;;
59950;SDS011;45812;53.540;9.774;2023-02-01T04:41:17;8.15;;;2.40;;
59950;SDS011;45812;53.540;9.774;2023-02-01T04:43:44;12.00;;;2.38;;
59950;SDS011;45812;53.540;9.774;2023-02-01T04:46:12;10.60;;;2.78;;
59950;SDS011;45812;53.540;9.774;2023-02-01T04:48:37;10.60;;;2.38;;
59950;SDS011;45812;53.540;9.774;2023-02-01T04:51:02;11.27;;;3.03;;
59950;SDS011;45812;53.540;9.774;2023-02-01T04:53:27;9.23;;;2.20;;
59950;SDS011;45812;53.540;9.774;2023-02-01T04:55:54;15.27;;;2.35;;
59950;SDS011;45812;53.540;9.774;2023-02-01T04:58:19;3.50;;;1.20;;
59950;SDS011;45812;53.540;9.774;2023-02-01T05:00:45;6.43;;;1.52;;
59950;SDS011;45812;53.540;9.774;2023-02-01T05:03:10;0.10;;;0.10;;
59950;SDS011;45812;53.540;9.774;2023-02-01T05:05:35;0.00;;;0.00;;
59950;SDS011;45812;53.540;9.774;2023-02-01T05:08:00;0.10;;;0.10;;
59950;SDS011;45812;53.540;9.774;2023-02-01T05:10:26;0.00;;;0.00;;
59950;SDS011;45812;53.540;9.774;2023-02-01T05:12:51;0.00;;;0.00;;
59950;SDS011;45812;53.540;9.774;2023-02-01T05:18:00;0.07;;;0.07;;
59950;SDS011;45812;53.540;9.774;2023-02-01T05:20:25;0.03;;;0.03;;
59950;SDS011;45812;53.540;9.774;2023-02-01T05:22:50;0.10;;;0.10;;
59950;SDS011;45812;53.540;9.774;2023-02-01T05:25:15;0.10;;;0.10;;
59950;SDS011;45812;53.540;9.774;2023-02-01T05:27:41;0.00;;;0.00;;
59950;SDS011;45812;53.540;9.774;2023-02-01T05:30:07;0.15;;;0.15;;
59950;SDS011;45812;53.540;9.774;2023-02-01T05:32:33;0.10;;;0.10;;
59950;SDS011;45812;53.540;9.774;2023-02-01T05:34:59;0.10;;;0.10;;
59950;SDS011;45812;53.540;9.774;2023-02-01T05:37:24;0.10;;;0.10;;
59950;SDS011;45812;53.540;9.774;2023-02-01T05:39:49;0.10;;;0.10;;
59950;SDS011;45812;53.540;9.774;2023-02-01T05:42:15;0.10;;;0.10;;
59950;SDS011;45812;53.540;9.774;2023-02-01T05:44:40;0.10;;;0.10;;
59950;SDS011;45812;53.540;9.774;2023-02-01T05:47:05;0.00;;;0.00;;
59950;SDS011;45812;53.540;9.774;2023-02-01T05:49:31;0.05;;;0.05;;
59950;SDS011;45812;53.540;9.774;2023-02-01T05:51:56;0.10;;;0.10;;
59950;SDS011;45812;53.540;9.774;2023-02-01T05:54:21;0.10;;;0.10;;
59950;SDS011;45812;53.540;9.774;2023-02-01T05:56:47;0.10;;;0.10;;
59950;SDS011;45812;53.540;9.774;2023-02-01T05:59:12;0.10;;;0.10;;
59950;SDS011;45812;53.540;9.774;2023-02-01T06:01:37;0.10;;;0.10;;
59950;SDS011;45812;53.540;9.774;2023-02-01T06:04:02;0.03;;;0.03;;
59950;SDS011;45812;53.540;9.774;2023-02-01T06:06:28;0.03;;;0.03;;
59950;SDS011;45812;53.540;9.774;2023-02-01T06:08:53;0.55;;;0.50;;
59950;SDS011;45812;53.540;9.774;2023-02-01T06:11:18;0.00;;;0.00;;
59950;SDS011;45812;53.540;9.774;2023-02-01T06:13:43;0.00;;;0.00;;
59950;SDS011;45812;53.540;9.774;2023-02-01T06:16:09;0.00;;;0.00;;
59950;SDS011;45812;53.540;9.774;2023-02-01T06:18:34;0.20;;;0.20;;
59950;SDS011;45812;53.540;9.774;2023-02-01T06:21:00;0.08;;;0.08;;
59950;SDS011;45812;53.540;9.774;2023-02-01T06:23:26;0.10;;;0.10;;
59950;SDS011;45812;53.540;9.774;2023-02-01T06:25:52;0.00;;;0.00;;
59950;SDS011;45812;53.540;9.774;2023-02-01T06:28:24;1.00;;;1.00;;
59950;SDS011;45812;53.540;9.774;2023-02-01T06:30:49;0.00;;;0.00;;
59950;SDS011;45812;53.540;9.774;2023-02-01T06:33:15;0.00;;;0.00;;
59950;SDS011;45812;53.540;9.774;2023-02-01T06:35:41;0.00;;;0.00;;
59950;SDS011;45812;53.540;9.774;2023-02-01T06:38:07;0.00;;;0.00;;
59950;SDS011;45812;53.540;9.774;2023-02-01T06:40:32;0.10;;;0.10;;
59950;SDS011;45812;53.540;9.774;2023-02-01T06:42:58;0.10;;;0.10;;
59950;SDS011;45812;53.540;9.774;2023-02-01T06:45:23;0.10;;;0.10;;
59950;SDS011;45812;53.540;9.774;2023-02-01T06:47:48;0.20;;;0.20;;
59950;SDS011;45812;53.540;9.774;2023-02-01T06:50:14;0.10;;;0.10;;
59950;SDS011;45812;53.540;9.774;2023-02-01T06:52:39;0.00;;;0.00;;
59950;SDS011;45812;53.540;9.774;2023-02-01T06:55:04;0.00;;;0.00;;
59950;SDS011;45812;53.540;9.774;2023-02-01T06:57:30;0.00;;;0.00;;
59950;SDS011;45812;53.540;9.774;2023-02-01T06:59:58;0.00;;;0.00;;
59950;SDS011;45812;53.540;9.774;2023-02-01T07:02:23;0.10;;;0.10;;
59950;SDS011;45812;53.540;9.774;2023-02-01T07:04:48;0.77;;;0.77;;
59950;SDS011;45812;53.540;9.774;2023-02-01T07:07:14;0.10;;;0.10;;
59950;SDS011;45812;53.540;9.774;2023-02-01T07:09:40;0.05;;;0.05;;
59950;SDS011;45812;53.540;9.774;2023-02-01T07:12:05;0.50;;;0.50;;
59950;SDS011;45812;53.540;9.774;2023-02-01T07:14:30;0.10;;;0.10;;
59950;SDS011;45812;53.540;9.774;2023-02-01T07:16:56;0.00;;;0.00;;
59950;SDS011;45812;53.540;9.774;2023-02-01T07:19:21;0.32;;;0.32;;
59950;SDS011;45812;53.540;9.774;2023-02-01T07:21:46;27.23;;;3.55;;
59950;SDS011;45812;53.540;9.774;2023-02-01T07:24:12;0.25;;;0.25;;
59950;SDS011;45812;53.540;9.774;2023-02-01T07:26:37;0.88;;;0.40;;
59950;SDS011;45812;53.540;9.774;2023-02-01T07:29:02;0.15;;;0.15;;
59950;SDS011;45812;53.540;9.774;2023-02-01T07:31:27;0.10;;;0.10;;
59950;SDS011;45812;53.540;9.774;2023-02-01T07:33:53;1.00;;;1.00;;
59950;SDS011;45812;53.540;9.774;2023-02-01T07:36:21;0.00;;;0.00;;
59950;SDS011;45812;53.540;9.774;2023-02-01T07:38:46;0.08;;;0.08;;
59950;SDS011;45812;53.540;9.774;2023-02-01T07:41:12;0.10;;;0.10;;
59950;SDS011;45812;53.540;9.774;2023-02-01T07:43:37;0.10;;;0.10;;
59950;SDS011;45812;53.540;9.774;2023-02-01T07:46:03;0.05;;;0.05;;
59950;SDS011;45812;53.540;9.774;2023-02-01T07:48:30;0.10;;;0.10;;
59950;SDS011;45812;53.540;9.774;2023-02-01T07:51:03;2.90;;;0.90;;
59950;SDS011;45812;53.540;9.774;2023-02-01T07:53:34;3.30;;;1.88;;
59950;SDS011;45812;53.540;9.774;2023-02-01T07:56:00;0.00;;;0.00;;
59950;SDS011;45812;53.540;9.774;2023-02-01T07:58:26;0.77;;;0.77;;
59950;SDS011;45812;53.540;9.774;2023-02-01T08:00:52;0.75;;;0.40;;
59950;SDS011;45812;53.540;9.774;2023-02-01T08:03:36;0.00;;;0.00;;
59950;SDS011;45812;53.540;9.774;2023-02-01T08:06:02;0.08;;;0.08;;
59950;SDS011;45812;53.540;9.774;2023-02-01T08:08:28;0.10;;;0.10;;
59950;SDS011;45812;53.540;9.774;2023-02-01T08:10:57;0.30;;;0.30;;
59950;SDS011;45812;53.540;9.774;2023-02-01T08:13:24;0.43;;;0.43;;
59950;SDS011;45812;53.540;9.774;2023-02-01T08:15:49;0.08;;;0.08;;
59950;SDS011;45812;53.540;9.774;2023-02-01T08:18:14;0.10;;;0.10;;
59950;SDS011;45812;53.540;9.774;2023-02-01T08:20:42;0.10;;;0.10;;
59950;SDS011;45812;53.540;9.774;2023-02-01T08:23:10;0.10;;;0.10;;
59950;SDS011;45812;53.540;9.774;2023-02-01T08:25:35;0.00;;;0.00;;
59950;SDS011;45812;53.540;9.774;2023-02-01T08:28:01;0.10;;;0.10;;
59950;SDS011;45812;53.540;9.774;2023-02-01T08:30:27;0.03;;;0.03;;
59950;SDS011;45812;53.540;9.774;2023-02-01T08:32:52;0.10;;;0.10;;
59950;SDS011;45812;53.540;9.774;2023-02-01T08:35:18;0.10;;;0.10;;
59950;SDS011;45812;53.540;9.774;2023-02-01T08:37:43;2.67;;;0.85;;
59950;SDS011;45812;53.540;9.774;2023-02-01T08:40:09;0.50;;;0.50;;
59950;SDS011;45812;53.540;9.774;2023-02-01T08:42:35;0.20;;;0.20;;
59950;SDS011;45812;53.540;9.774;2023-02-01T08:45:15;0.10;;;0.10;;
59950;SDS011;45812;53.540;9.774;2023-02-01T08:47:41;2.38;;;2.25;;
59950;SDS011;45812;53.540;9.774;2023-02-01T08:50:07;0.08;;;0.08;;
59950;SDS011;45812;53.540;9.774;2023-02-01T08:52:33;2.60;;;0.80;;
59950;SDS011;45812;53.540;9.774;2023-02-01T08:54:58;0.10;;;0.10;;
59950;SDS011;45812;53.540;9.774;2023-02-01T08:57:24;0.10;;;0.10;;
59950;SDS011;45812;53.540;9.774;2023-02-01T08:59:49;7.28;;;0.55;;
59950;SDS011;45812;53.540;9.774;2023-02-01T09:02:15;0.00;;;0.00;;
59950;SDS011;45812;53.540;9.774;2023-02-01T09:04:41;0.13;;;0.13;;
59950;SDS011;45812;53.540;9.774;2023-02-01T09:07:07;0.10;;;0.10;;
59950;SDS011;45812;53.540;9.774;2023-02-01T09:09:33;0.10;;;0.10;;
59950;SDS011;45812;53.540;9.774;2023-02-01T09:11:59;0.08;;;0.08;;
59950;SDS011;45812;53.540;9.774;2023-02-01T09:14:24;0.00;;;0.00;;
59950;SDS011;45812;53.540;9.774;2023-02-01T09:16:49;0.20;;;0.20;;
59950;SDS011;45812;53.540;9.774;2023-02-01T09:19:14;1.55;;;0.73;;
59950;SDS011;45812;53.540;9.774;2023-02-01T09:21:40;0.45;;;0.45;;
59950;SDS011;45812;53.540;9.774;2023-02-01T09:24:05;0.10;;;0.10;;
59950;SDS011;45812;53.540;9.774;2023-02-01T09:26:32;0.10;;;0.10;;
59950;SDS011;45812;53.540;9.774;2023-02-01T09:28:57;1.45;;;0.75;;
59950;SDS011;45812;53.540;9.774;2023-02-01T09:31:23;0.05;;;0.05;;
59950;SDS011;45812;53.540;9.774;2023-02-01T09:33:48;0.13;;;0.13;;
59950;SDS011;45812;53.540;9.774;2023-02-01T09:36:13;11.98;;;2.30;;
59950;SDS011;45812;53.540;9.774;2023-02-01T09:38:38;0.10;;;0.10;;
59950;SDS011;45812;53.540;9.774;2023-02-01T09:41:10;0.52;;;0.52;;
59950;SDS011;45812;53.540;9.774;2023-02-01T09:44:00;1.55;;;0.30;;
59950;SDS011;45812;53.540;9.774;2023-02-01T09:46:54;1.92;;;1.10;;
59950;SDS011;45812;53.540;9.774;2023-02-01T09:49:22;1.52;;;1.20;;
59950;SDS011;45812;53.540;9.774;2023-02-01T09:51:53;0.45;;;0.45;;
59950;SDS011;45812;53.540;9.774;2023-02-01T09:54:28;0.00;;;0.00;;
59950;SDS011;45812;53.540;9.774;2023-02-01T09:57:14;0.10;;;0.10;;
59950;SDS011;45812;53.540;9.774;2023-02-01T09:59:46;0.10;;;0.10;;
59950;SDS011;45812;53.540;9.774;2023-02-01T10:02:24;0.10;;;0.10;;
59950;SDS011;45812;53.540;9.774;2023-02-01T10:04:52;0.10;;;0.10;;
59950;SDS011;45812;53.540;9.774;2023-02-01T10:18:42;0.10;;;0.10;;
59950;SDS011;45812;53.540;9.774;2023-02-01T10:26:46;0.03;;;0.03;;
59950;SDS011;45812;53.540;9.774;2023-02-01T10:29:20;0.22;;;0.22;;
59950;SDS011;45812;53.540;9.774;2023-02-01T10:31:49;0.93;;;0.93;;
59950;SDS011;45812;53.540;9.774;2023-02-01T10:34:19;0.30;;;0.30;;
59950;SDS011;45812;53.540;9.774;2023-02-01T10:39:43;0.00;;;0.00;;
59950;SDS011;45812;53.540;9.774;2023-02-01T10:42:09;0.73;;;0.73;;
59950;SDS011;45812;53.540;9.774;2023-02-01T10:44:35;0.10;;;0.10;;
59950;SDS011;45812;53.540;9.774;2023-02-01T10:47:05;0.03;;;0.03;;
59950;SDS011;45812;53.540;9.774;2023-02-01T10:49:34;0.73;;;0.73;;
59950;SDS011;45812;53.540;9.774;2023-02-01T10:54:39;0.10;;;0.10;;
59950;SDS011;45812;53.540;9.774;2023-02-01T10:57:20;1.08;;;1.08;;
59950;SDS011;45812;53.540;9.774;2023-02-01T10:59:51;6.55;;;1.65;;
59950;SDS011;45812;53.540;9.774;2023-02-01T11:02:25;0.00;;;0.00;;
59950;SDS011;45812;53.540;9.774;2023-02-01T11:05:00;0.00;;;0.00;;
59950;SDS011;45812;53.540;9.774;2023-02-01T11:07:28;0.10;;;0.10;;
59950;SDS011;45812;53.540;9.774;2023-02-01T11:09:55;0.10;;;0.10;;
59950;SDS011;45812;53.540;9.774;2023-02-01T11:12:42;0.10;;;0.10;;
59950;SDS011;45812;53.540;9.774;2023-02-01T11:15:14;0.03;;;0.03;;
59950;SDS011;45812;53.540;9.774;2023-02-01T11:17:45;0.00;;;0.00;;
59950;SDS011;45812;53.540;9.774;2023-02-01T11:20:16;0.15;;;0.15;;
59950;SDS011;45812;53.540;9.774;2023-02-01T11:23:01;0.30;;;0.30;;
59950;SDS011;45812;53.540;9.774;2023-02-01T11:25:27;0.50;;;0.50;;
59950;SDS011;45812;53.540;9.774;2023-02-01T11:27:53;0.10;;;0.10;;
59950;SDS011;45812;53.540;9.774;2023-02-01T11:30:27;0.22;;;0.22;;
59950;SDS011;45812;53.540;9.774;2023-02-01T11:33:03;0.77;;;0.77;;
59950;SDS011;45812;53.540;9.774;2023-02-01T11:35:30;0.10;;;0.10;;
59950;SDS011;45812;53.540;9.774;2023-02-01T11:37:57;0.10;;;0.10;;
59950;SDS011;45812;53.540;9.774;2023-02-01T11:40:26;2.53;;;0.63;;
59950;SDS011;45812;53.540;9.774;2023-02-01T11:42:53;0.10;;;0.10;;
59950;SDS011;45812;53.540;9.774;2023-02-01T11:45:25;0.10;;;0.10;;
59950;SDS011;45812;53.540;9.774;2023-02-01T11:47:53;0.10;;;0.10;;
59950;SDS011;45812;53.540;9.774;2023-02-01T11:56:19;0.10;;;0.10;;
59950;SDS011;45812;53.540;9.774;2023-02-01T11:59:00;2.42;;;1.17;;
59950;SDS011;45812;53.540;9.774;2023-02-01T12:10:58;0.10;;;0.10;;
59950;SDS011;45812;53.540;9.774;2023-02-01T12:24:59;0.10;;;0.10;;
59950;SDS011;45812;53.540;9.774;2023-02-01T12:27:56;0.13;;;0.13;;
59950;SDS011;45812;53.540;9.774;2023-02-01T12:30:48;2.40;;;1.20;;
59950;SDS011;45812;53.540;9.774;2023-02-01T12:36:12;0.10;;;0.10;;
59950;SDS011;45812;53.540;9.774;2023-02-01T12:38:57;0.10;;;0.10;;
59950;SDS011;45812;53.540;9.774;2023-02-01T12:41:27;0.00;;;0.00;;
59950;SDS011;45812;53.540;9.774;2023-02-01T12:44:01;0.10;;;0.10;;
59950;SDS011;45812;53.540;9.774;2023-02-01T12:46:43;0.00;;;0.00;;
59950;SDS011;45812;53.540;9.774;2023-02-01T12:49:15;0.10;;;0.10;;
59950;SDS011;45812;53.540;9.774;2023-02-01T12:51:50;0.00;;;0.00;;
59950;SDS011;45812;53.540;9.774;2023-02-01T12:54:29;0.30;;;0.30;;
59950;SDS011;45812;53.540;9.774;2023-02-01T12:57:13;0.10;;;0.10;;
59950;SDS011;45812;53.540;9.774;2023-02-01T12:59:44;0.00;;;0.00;;
59950;SDS011;45812;53.540;9.774;2023-02-01T13:02:19;0.00;;;0.00;;
59950;SDS011;45812;53.540;9.774;2023-02-01T13:04:56;0.10;;;0.10;;
59950;SDS011;45812;53.540;9.774;2023-02-01T13:07:38;0.10;;;0.10;;
59950;SDS011;45812;53.540;9.774;2023-02-01T13:10:19;0.10;;;0.10;;
59950;SDS011;45812;53.540;9.774;2023-02-01T13:13:02;0.03;;;0.03;;
59950;SDS011;45812;53.540;9.774;2023-02-01T13:15:42;0.10;;;0.10;;
59950;SDS011;45812;53.540;9.774;2023-02-01T13:18:19;0.10;;;0.10;;
59950;SDS011;45812;53.540;9.774;2023-02-01T13:20:51;0.15;;;0.15;;
59950;SDS011;45812;53.540;9.774;2023-02-01T13:23:30;0.10;;;0.10;;
59950;SDS011;45812;53.540;9.774;2023-02-01T13:25:59;0.20;;;0.20;;
59950;SDS011;45812;53.540;9.774;2023-02-01T13:28:28;0.13;;;0.13;;
59950;SDS011;45812;53.540;9.774;2023-02-01T13:42:16;0.10;;;0.10;;
59950;SDS011;45812;53.540;9.774;2023-02-01T13:44:47;0.10;;;0.10;;
59950;SDS011;45812;53.540;9.774;2023-02-01T13:50:09;0.10;;;0.10;;
59950;SDS011;45812;53.540;9.774;2023-02-01T13:52:44;0.10;;;0.10;;
59950;SDS011;45812;53.540;9.774;2023-02-01T13:57:45;0.10;;;0.10;;
59950;SDS011;45812;53.540;9.774;2023-02-01T14:21:46;0.00;;;0.00;;
59950;SDS011;45812;53.540;9.774;2023-02-01T14:23:59;0.10;;;0.10;;
59950;SDS011;45812;53.540;9.774;2023-02-01T14:26:45;11.45;;;0.90;;
59950;SDS011;45812;53.540;9.774;2023-02-01T14:34:35;2.60;;;0.40;;
59950;SDS011;45812;53.540;9.774;2023-02-01T14:37:08;0.10;;;0.10;;
59950;SDS011;45812;53.540;9.774;2023-02-01T14:42:23;0.17;;;0.17;;
59950;SDS011;45812;53.540;9.774;2023-02-01T14:44:52;0.00;;;0.00;;
59950;SDS011;45812;53.540;9.774;2023-02-01T14:52:38;0.10;;;0.10;;
59950;SDS011;45812;53.540;9.774;2023-02-01T14:55:15;0.10;;;0.10;;
59950;SDS011;45812;53.540;9.774;2023-02-01T14:57:46;0.10;;;0.10;;
59950;SDS011;45812;53.540;9.774;2023-02-01T15:00:19;0.03;;;0.03;;
59950;SDS011;45812;53.540;9.774;2023-02-01T15:02:50;0.10;;;0.10;;
59950;SDS011;45812;53.540;9.774;2023-02-01T15:05:22;0.10;;;0.10;;
59950;SDS011;45812;53.540;9.774;2023-02-01T15:07:56;0.10;;;0.10;;
59950;SDS011;45812;53.540;9.774;2023-02-01T15:10:25;0.25;;;0.25;;
59950;SDS011;45812;53.540;9.774;2023-02-01T15:12:51;0.20;;;0.20;;
59950;SDS011;45812;53.540;9.774;2023-02-01T15:15:20;0.28;;;0.28;;
59950;SDS011;45812;53.540;9.774;2023-02-01T15:17:49;0.20;;;0.20;;
59950;SDS011;45812;53.540;9.774;2023-02-01T15:20:40;0.03;;;0.03;;
59950;SDS011;45812;53.540;9.774;2023-02-01T15:23:05;0.10;;;0.10;;
59950;SDS011;45812;53.540;9.774;2023-02-01T15:25:40;0.15;;;0.15;;
59950;SDS011;45812;53.540;9.774;2023-02-01T15:28:09;0.10;;;0.10;;
59950;SDS011;45812;53.540;9.774;2023-02-01T15:30:37;0.10;;;0.10;;
59950;SDS011;45812;53.540;9.774;2023-02-01T15:38:18;0.10;;;0.10;;
59950;SDS011;45812;53.540;9.774;2023-02-01T15:43:29;0.10;;;0.10;;
59950;SDS011;45812;53.540;9.774;2023-02-01T15:45:58;0.00;;;0.00;;
59950;SDS011;45812;53.540;9.774;2023-02-01T15:48:26;0.10;;;0.10;;
59950;SDS011;45812;53.540;9.774;2023-02-01T15:50:57;0.75;;;0.75;;
59950;SDS011;45812;53.540;9.774;2023-02-01T15:53:24;0.00;;;0.00;;
59950;SDS011;45812;53.540;9.774;2023-02-01T15:55:55;0.10;;;0.10;;
59950;SDS011;45812;53.540;9.774;2023-02-01T15:58:26;0.10;;;0.10;;
59950;SDS011;45812;53.540;9.774;2023-02-01T16:00:56;0.10;;;0.10;;
59950;SDS011;45812;53.540;9.774;2023-02-01T16:03:37;0.10;;;0.10;;
59950;SDS011;45812;53.540;9.774;2023-02-01T16:06:10;0.10;;;0.10;;
59950;SDS011;45812;53.540;9.774;2023-02-01T16:08:52;0.10;;;0.10;;
59950;SDS011;45812;53.540;9.774;2023-02-01T16:11:25;6.65;;;0.77;;
59950;SDS011;45812;53.540;9.774;2023-02-01T16:13:55;0.00;;;0.00;;
59950;SDS011;45812;53.540;9.774;2023-02-01T16:16:20;1.40;;;0.80;;
59950;SDS011;45812;53.540;9.774;2023-02-01T16:18:45;0.00;;;0.00;;
59950;SDS011;45812;53.540;9.774;2023-02-01T16:21:10;0.17;;;0.17;;
59950;SDS011;45812;53.540;9.774;2023-02-01T16:23:36;0.10;;;0.10;;
59950;SDS011;45812;53.540;9.774;2023-02-01T16:26:02;0.10;;;0.10;;
59950;SDS011;45812;53.540;9.774;2023-02-01T16:28:28;0.10;;;0.10;;
59950;SDS011;45812;53.540;9.774;2023-02-01T16:30:53;1.75;;;1.05;;
59950;SDS011;45812;53.540;9.774;2023-02-01T16:33:19;0.10;;;0.10;;
59950;SDS011;45812;53.540;9.774;2023-02-01T16:35:47;0.10;;;0.10;;
59950;SDS011;45812;53.540;9.774;2023-02-01T16:38:14;0.25;;;0.25;;
59950;SDS011;45812;53.540;9.774;2023-02-01T16:40:43;1.17;;;1.08;;
59950;SDS011;45812;53.540;9.774;2023-02-01T16:43:13;0.20;;;0.20;;
59950;SDS011;45812;53.540;9.774;2023-02-01T16:45:43;0.10;;;0.10;;
59950;SDS011;45812;53.540;9.774;2023-02-01T16:48:16;0.08;;;0.08;;
59950;SDS011;45812;53.540;9.774;2023-02-01T16:50:46;0.10;;;0.10;;
59950;SDS011;45812;53.540;9.774;2023-02-01T16:53:14;0.45;;;0.20;;
59950;SDS011;45812;53.540;9.774;2023-02-01T16:55:41;0.10;;;0.10;;
59950;SDS011;45812;53.540;9.774;2023-02-01T16:58:08;2.90;;;1.10;;
59950;SDS011;45812;53.540;9.774;2023-02-01T17:00:33;0.10;;;0.10;;
59950;SDS011;45812;53.540;9.774;2023-02-01T17:03:01;0.05;;;0.05;;
59950;SDS011;45812;53.540;9.774;2023-02-01T17:05:26;0.10;;;0.10;;
59950;SDS011;45812;53.540;9.774;2023-02-01T17:07:53;1.55;;;0.80;;
59950;SDS011;45812;53.540;9.774;2023-02-01T17:10:26;0.10;;;0.10;;
59950;SDS011;45812;53.540;9.774;2023-02-01T17:12:52;0.20;;;0.20;;
59950;SDS011;45812;53.540;9.774;2023-02-01T17:15:17;9.40;;;1.58;;
59950;SDS011;45812;53.540;9.774;2023-02-01T17:17:42;1.40;;;1.30;;
59950;SDS011;45812;53.540;9.774;2023-02-01T17:20:19;0.43;;;0.43;;
59950;SDS011;45812;53.540;9.774;2023-02-01T17:22:46;0.20;;;0.20;;